sensor_id;sensor_type;location;lat;lon;timestamp;temperature;humidity
6788;DHT22;3431;47.966;10.268;2023-05-28T00:00:00;12.20;99.90
6788;DHT22;3431;47.966;10.268;2023-05-28T00:00:45;12.20;99.90
6788;DHT22;3431;47.966;10.268;2023-05-28T00:01:07;12.20;99.90
6788;DHT22;3431;47.966;10.268;2023-05-28T00:01:29;12.10;99.90
6788;DHT22;3431;47.966;10.268;2023-05-28T00:01:50;12.10;99.90
6788;DHT22;3431;47.966;10.268;2023-05-28T00:02:12;12.10;99.90
6788;DHT22;3431;47.966;10.268;2023-05-28T00:02:35;12.10;99.90
6788;DHT22;3431;47.966;10.268;2023-05-28T00:02:56;12.10;99.90
6788;DHT22;3431;47.966;10.268;2023-05-28T00:03:18;12.10;99.90
6788;DHT22;3431;47.966;10.268;2023-05-28T00:03:40;12.10;99.90
6788;DHT22;3431;47.966;10.268;2023-05-28T00:04:02;12.10;99.90
6788;DHT22;3431;47.966;10.268;2023-05-28T00:04:25;12.00;99.90
6788;DHT22;3431;47.966;10.268;2023-05-28T00:04:46;12.10;99.90
6788;DHT22;3431;47.966;10.268;2023-05-28T00:05:08;12.00;99.90
6788;DHT22;3431;47.966;10.268;2023-05-28T00:05:30;12.00;99.90
6788;DHT22;3431;47.966;10.268;2023-05-28T00:05:54;12.00;99.90
6788;DHT22;3431;47.966;10.268;2023-05-28T00:06:15;11.90;99.90
6788;DHT22;3431;47.966;10.268;2023-05-28T00:06:37;12.00;99.90
6788;DHT22;3431;47.966;10.268;2023-05-28T00:07:21;12.00;99.90
6788;DHT22;3431;47.966;10.268;2023-05-28T00:07:45;12.00;99.90
6788;DHT22;3431;47.966;10.268;2023-05-28T00:08:06;11.90;99.90
6788;DHT22;3431;47.966;10.268;2023-05-28T00:08:28;11.90;99.90
6788;DHT22;3431;47.966;10.268;2023-05-28T00:08:50;11.90;99.90
6788;DHT22;3431;47.966;10.268;2023-05-28T00:09:12;11.90;99.90
6788;DHT22;3431;47.966;10.268;2023-05-28T00:09:33;11.90;99.90
6788;DHT22;3431;47.966;10.268;2023-05-28T00:09:55;11.90;99.90
6788;DHT22;3431;47.966;10.268;2023-05-28T00:10:17;11.90;99.90
6788;DHT22;3431;47.966;10.268;2023-05-28T00:10:40;11.90;99.90
6788;DHT22;3431;47.966;10.268;2023-05-28T00:11:01;11.90;99.90
6788;DHT22;3431;47.966;10.268;2023-05-28T00:11:23;11.80;99.90
6788;DHT22;3431;47.966;10.268;2023-05-28T00:11:45;11.80;99.90
6788;DHT22;3431;47.966;10.268;2023-05-28T00:12:08;11.80;99.90
6788;DHT22;3431;47.966;10.268;2023-05-28T00:12:29;11.80;99.90
6788;DHT22;3431;47.966;10.268;2023-05-28T00:12:51;11.80;99.90
6788;DHT22;3431;47.966;10.268;2023-05-28T00:13:12;11.80;99.90
6788;DHT22;3431;47.966;10.268;2023-05-28T00:13:35;11.80;99.90
6788;DHT22;3431;47.966;10.268;2023-05-28T00:13:56;11.80;99.90
6788;DHT22;3431;47.966;10.268;2023-05-28T00:14:40;11.80;99.90
6788;DHT22;3431;47.966;10.268;2023-05-28T00:15:03;11.70;99.90
6788;DHT22;3431;47.966;10.268;2023-05-28T00:15:25;11.70;99.90
6788;DHT22;3431;47.966;10.268;2023-05-28T00:15:48;11.70;99.90
6788;DHT22;3431;47.966;10.268;2023-05-28T00:16:09;11.70;99.90
6788;DHT22;3431;47.966;10.268;2023-05-28T00:16:34;11.70;99.90
6788;DHT22;3431;47.966;10.268;2023-05-28T00:16:58;11.70;99.90
6788;DHT22;3431;47.966;10.268;2023-05-28T00:17:19;11.70;99.90
6788;DHT22;3431;47.966;10.268;2023-05-28T00:17:42;11.70;99.90
6788;DHT22;3431;47.966;10.268;2023-05-28T00:18:04;11.70;99.90
6788;DHT22;3431;47.966;10.268;2023-05-28T00:18:26;11.70;99.90
6788;DHT22;3431;47.966;10.268;2023-05-28T00:18:49;11.70;99.90
6788;DHT22;3431;47.966;10.268;2023-05-28T00:19:11;11.60;99.90
6788;DHT22;3431;47.966;10.268;2023-05-28T00:19:54;11.60;99.90
6788;DHT22;3431;47.966;10.268;2023-05-28T00:20:17;11.60;99.90
6788;DHT22;3431;47.966;10.268;2023-05-28T00:20:38;11.60;99.90
6788;DHT22;3431;47.966;10.268;2023-05-28T00:21:01;11.60;99.90
6788;DHT22;3431;47.966;10.268;2023-05-28T00:21:23;11.60;99.90
6788;DHT22;3431;47.966;10.268;2023-05-28T00:21:47;11.60;99.90
6788;DHT22;3431;47.966;10.268;2023-05-28T00:22:09;11.60;99.90
6788;DHT22;3431;47.966;10.268;2023-05-28T00:22:30;11.60;99.90
6788;DHT22;3431;47.966;10.268;2023-05-28T00:22:52;11.60;99.90
6788;DHT22;3431;47.966;10.268;2023-05-28T00:23:14;11.60;99.90
6788;DHT22;3431;47.966;10.268;2023-05-28T00:23:37;11.50;99.90
6788;DHT22;3431;47.966;10.268;2023-05-28T00:23:59;11.60;99.90
6788;DHT22;3431;47.966;10.268;2023-05-28T00:24:21;11.60;99.90
6788;DHT22;3431;47.966;10.268;2023-05-28T00:24:43;11.60;99.90
6788;DHT22;3431;47.966;10.268;2023-05-28T00:25:06;11.60;99.90
6788;DHT22;3431;47.966;10.268;2023-05-28T00:25:27;11.50;99.90
6788;DHT22;3431;47.966;10.268;2023-05-28T00:25:49;11.50;99.90
6788;DHT22;3431;47.966;10.268;2023-05-28T00:26:10;11.50;99.90
6788;DHT22;3431;47.966;10.268;2023-05-28T00:26:34;11.50;99.90
6788;DHT22;3431;47.966;10.268;2023-05-28T00:26:58;11.50;99.90
6788;DHT22;3431;47.966;10.268;2023-05-28T00:27:19;11.50;99.90
6788;DHT22;3431;47.966;10.268;2023-05-28T00:28:04;11.50;99.90
6788;DHT22;3431;47.966;10.268;2023-05-28T00:28:47;11.50;99.90
6788;DHT22;3431;47.966;10.268;2023-05-28T00:29:09;11.40;99.90
6788;DHT22;3431;47.966;10.268;2023-05-28T00:29:32;11.50;99.90
6788;DHT22;3431;47.966;10.268;2023-05-28T00:30:15;11.50;99.90
6788;DHT22;3431;47.966;10.268;2023-05-28T00:30:37;11.40;99.90
6788;DHT22;3431;47.966;10.268;2023-05-28T00:31:00;11.50;99.90
6788;DHT22;3431;47.966;10.268;2023-05-28T00:31:22;11.50;99.90
6788;DHT22;3431;47.966;10.268;2023-05-28T00:31:44;11.50;99.90
6788;DHT22;3431;47.966;10.268;2023-05-28T00:32:06;11.50;99.90
6788;DHT22;3431;47.966;10.268;2023-05-28T00:32:28;11.50;99.90
6788;DHT22;3431;47.966;10.268;2023-05-28T00:32:50;11.40;99.90
6788;DHT22;3431;47.966;10.268;2023-05-28T00:33:12;11.50;99.90
6788;DHT22;3431;47.966;10.268;2023-05-28T00:33:33;11.40;99.90
6788;DHT22;3431;47.966;10.268;2023-05-28T00:33:56;11.40;99.90
6788;DHT22;3431;47.966;10.268;2023-05-28T00:34:18;11.40;99.90
6788;DHT22;3431;47.966;10.268;2023-05-28T00:34:40;11.40;99.90
6788;DHT22;3431;47.966;10.268;2023-05-28T00:35:25;11.40;99.90
6788;DHT22;3431;47.966;10.268;2023-05-28T00:35:48;11.40;99.90
6788;DHT22;3431;47.966;10.268;2023-05-28T00:36:13;11.40;99.90
6788;DHT22;3431;47.966;10.268;2023-05-28T00:36:35;11.40;99.90
6788;DHT22;3431;47.966;10.268;2023-05-28T00:36:58;11.40;99.90
6788;DHT22;3431;47.966;10.268;2023-05-28T00:37:20;11.40;99.90
6788;DHT22;3431;47.966;10.268;2023-05-28T00:37:42;11.40;99.90
6788;DHT22;3431;47.966;10.268;2023-05-28T00:38:04;11.40;99.90
6788;DHT22;3431;47.966;10.268;2023-05-28T00:38:26;11.40;99.90
6788;DHT22;3431;47.966;10.268;2023-05-28T00:38:48;11.40;99.90
6788;DHT22;3431;47.966;10.268;2023-05-28T00:39:11;11.40;99.90
6788;DHT22;3431;47.966;10.268;2023-05-28T00:39:32;11.30;99.90
6788;DHT22;3431;47.966;10.268;2023-05-28T00:39:54;11.40;99.90
6788;DHT22;3431;47.966;10.268;2023-05-28T00:40:15;11.30;99.90
6788;DHT22;3431;47.966;10.268;2023-05-28T00:40:42;11.30;99.90
6788;DHT22;3431;47.966;10.268;2023-05-28T00:41:06;11.30;99.90
6788;DHT22;3431;47.966;10.268;2023-05-28T00:41:27;11.30;99.90
6788;DHT22;3431;47.966;10.268;2023-05-28T00:41:59;11.30;99.90
6788;DHT22;3431;47.966;10.268;2023-05-28T00:42:22;11.30;99.90
6788;DHT22;3431;47.966;10.268;2023-05-28T00:42:45;11.20;99.90
6788;DHT22;3431;47.966;10.268;2023-05-28T00:43:07;11.20;99.90
6788;DHT22;3431;47.966;10.268;2023-05-28T00:43:29;11.10;99.90
6788;DHT22;3431;47.966;10.268;2023-05-28T00:43:51;11.20;99.90
6788;DHT22;3431;47.966;10.268;2023-05-28T00:44:13;11.20;99.90
6788;DHT22;3431;47.966;10.268;2023-05-28T00:44:35;11.20;99.90
6788;DHT22;3431;47.966;10.268;2023-05-28T00:44:57;11.10;99.90
6788;DHT22;3431;47.966;10.268;2023-05-28T00:45:18;11.10;99.90
6788;DHT22;3431;47.966;10.268;2023-05-28T00:45:40;11.10;99.90
6788;DHT22;3431;47.966;10.268;2023-05-28T00:46:03;11.10;99.90
6788;DHT22;3431;47.966;10.268;2023-05-28T00:46:27;11.10;99.90
6788;DHT22;3431;47.966;10.268;2023-05-28T00:46:48;11.10;99.90
6788;DHT22;3431;47.966;10.268;2023-05-28T00:47:10;11.10;99.90
6788;DHT22;3431;47.966;10.268;2023-05-28T00:47:32;11.10;99.90
6788;DHT22;3431;47.966;10.268;2023-05-28T00:47:55;11.10;99.90
6788;DHT22;3431;47.966;10.268;2023-05-28T00:48:17;11.00;99.90
6788;DHT22;3431;47.966;10.268;2023-05-28T00:48:38;11.00;99.90
6788;DHT22;3431;47.966;10.268;2023-05-28T00:49:00;11.00;99.90
6788;DHT22;3431;47.966;10.268;2023-05-28T00:49:22;10.90;99.90
6788;DHT22;3431;47.966;10.268;2023-05-28T00:49:45;11.00;99.90
6788;DHT22;3431;47.966;10.268;2023-05-28T00:50:10;10.90;99.90
6788;DHT22;3431;47.966;10.268;2023-05-28T00:50:34;11.00;99.90
6788;DHT22;3431;47.966;10.268;2023-05-28T00:50:55;10.90;99.90
6788;DHT22;3431;47.966;10.268;2023-05-28T00:51:19;10.90;99.90
6788;DHT22;3431;47.966;10.268;2023-05-28T00:51:42;10.90;99.90
6788;DHT22;3431;47.966;10.268;2023-05-28T00:52:04;10.90;99.90
6788;DHT22;3431;47.966;10.268;2023-05-28T00:52:26;10.90;99.90
6788;DHT22;3431;47.966;10.268;2023-05-28T00:52:49;10.90;99.90
6788;DHT22;3431;47.966;10.268;2023-05-28T00:53:13;10.90;99.90
6788;DHT22;3431;47.966;10.268;2023-05-28T00:53:35;10.80;99.90
6788;DHT22;3431;47.966;10.268;2023-05-28T00:53:57;10.80;99.90
6788;DHT22;3431;47.966;10.268;2023-05-28T00:54:19;10.80;99.90
6788;DHT22;3431;47.966;10.268;2023-05-28T00:54:41;10.80;99.90
6788;DHT22;3431;47.966;10.268;2023-05-28T00:55:08;10.80;99.90
6788;DHT22;3431;47.966;10.268;2023-05-28T00:55:35;10.80;99.90
6788;DHT22;3431;47.966;10.268;2023-05-28T00:55:57;10.80;99.90
6788;DHT22;3431;47.966;10.268;2023-05-28T00:56:41;10.80;99.90
6788;DHT22;3431;47.966;10.268;2023-05-28T00:57:05;10.80;99.90
6788;DHT22;3431;47.966;10.268;2023-05-28T00:57:26;10.70;99.90
6788;DHT22;3431;47.966;10.268;2023-05-28T00:57:49;10.70;99.90
6788;DHT22;3431;47.966;10.268;2023-05-28T00:58:11;10.80;99.90
6788;DHT22;3431;47.966;10.268;2023-05-28T00:58:33;10.70;99.90
6788;DHT22;3431;47.966;10.268;2023-05-28T00:58:56;10.70;99.90
6788;DHT22;3431;47.966;10.268;2023-05-28T00:59:18;10.70;99.90
6788;DHT22;3431;47.966;10.268;2023-05-28T00:59:39;10.70;99.90
6788;DHT22;3431;47.966;10.268;2023-05-28T01:00:05;10.70;99.90
6788;DHT22;3431;47.966;10.268;2023-05-28T01:00:26;10.70;99.90
6788;DHT22;3431;47.966;10.268;2023-05-28T01:00:48;10.70;99.90
6788;DHT22;3431;47.966;10.268;2023-05-28T01:01:09;10.70;99.90
6788;DHT22;3431;47.966;10.268;2023-05-28T01:01:54;10.70;99.90
6788;DHT22;3431;47.966;10.268;2023-05-28T01:02:16;10.70;99.90
6788;DHT22;3431;47.966;10.268;2023-05-28T01:02:37;10.70;99.90
6788;DHT22;3431;47.966;10.268;2023-05-28T01:02:59;10.70;99.90
6788;DHT22;3431;47.966;10.268;2023-05-28T01:03:22;10.70;99.90
6788;DHT22;3431;47.966;10.268;2023-05-28T01:03:45;10.70;99.90
6788;DHT22;3431;47.966;10.268;2023-05-28T01:04:07;10.70;99.90
6788;DHT22;3431;47.966;10.268;2023-05-28T01:04:29;10.70;99.90
6788;DHT22;3431;47.966;10.268;2023-05-28T01:04:52;10.70;99.90
6788;DHT22;3431;47.966;10.268;2023-05-28T01:05:15;10.70;99.90
6788;DHT22;3431;47.966;10.268;2023-05-28T01:05:36;10.70;99.90
6788;DHT22;3431;47.966;10.268;2023-05-28T01:05:58;10.70;99.90
6788;DHT22;3431;47.966;10.268;2023-05-28T01:06:24;10.70;99.90
6788;DHT22;3431;47.966;10.268;2023-05-28T01:06:50;10.70;99.90
6788;DHT22;3431;47.966;10.268;2023-05-28T01:07:13;10.70;99.90
6788;DHT22;3431;47.966;10.268;2023-05-28T01:07:34;10.70;99.90
6788;DHT22;3431;47.966;10.268;2023-05-28T01:07:56;10.70;99.90
6788;DHT22;3431;47.966;10.268;2023-05-28T01:08:18;10.70;99.90
6788;DHT22;3431;47.966;10.268;2023-05-28T01:08:41;10.70;99.90
6788;DHT22;3431;47.966;10.268;2023-05-28T01:09:25;10.70;99.90
6788;DHT22;3431;47.966;10.268;2023-05-28T01:09:47;10.70;99.90
6788;DHT22;3431;47.966;10.268;2023-05-28T01:10:10;10.70;99.90
6788;DHT22;3431;47.966;10.268;2023-05-28T01:10:32;10.70;99.90
6788;DHT22;3431;47.966;10.268;2023-05-28T01:10:54;10.70;99.90
6788;DHT22;3431;47.966;10.268;2023-05-28T01:11:18;10.70;99.90
6788;DHT22;3431;47.966;10.268;2023-05-28T01:11:42;10.70;99.90
6788;DHT22;3431;47.966;10.268;2023-05-28T01:12:08;10.70;99.90
6788;DHT22;3431;47.966;10.268;2023-05-28T01:12:31;10.70;99.90
6788;DHT22;3431;47.966;10.268;2023-05-28T01:12:53;10.70;99.90
6788;DHT22;3431;47.966;10.268;2023-05-28T01:13:16;10.70;99.90
6788;DHT22;3431;47.966;10.268;2023-05-28T01:13:38;10.80;99.90
6788;DHT22;3431;47.966;10.268;2023-05-28T01:14:01;10.80;99.90
6788;DHT22;3431;47.966;10.268;2023-05-28T01:14:24;10.80;99.90
6788;DHT22;3431;47.966;10.268;2023-05-28T01:14:48;10.70;99.90
6788;DHT22;3431;47.966;10.268;2023-05-28T01:15:10;10.70;99.90
6788;DHT22;3431;47.966;10.268;2023-05-28T01:15:32;10.70;99.90
6788;DHT22;3431;47.966;10.268;2023-05-28T01:15:54;10.70;99.90
6788;DHT22;3431;47.966;10.268;2023-05-28T01:16:16;10.80;99.90
6788;DHT22;3431;47.966;10.268;2023-05-28T01:16:40;10.70;99.90
6788;DHT22;3431;47.966;10.268;2023-05-28T01:17:02;10.80;99.90
6788;DHT22;3431;47.966;10.268;2023-05-28T01:17:25;10.70;99.90
6788;DHT22;3431;47.966;10.268;2023-05-28T01:17:46;10.70;99.90
6788;DHT22;3431;47.966;10.268;2023-05-28T01:18:09;10.80;99.90
6788;DHT22;3431;47.966;10.268;2023-05-28T01:18:34;10.70;99.90
6788;DHT22;3431;47.966;10.268;2023-05-28T01:18:56;10.70;99.90
6788;DHT22;3431;47.966;10.268;2023-05-28T01:19:22;10.70;99.90
6788;DHT22;3431;47.966;10.268;2023-05-28T01:19:48;10.80;99.90
6788;DHT22;3431;47.966;10.268;2023-05-28T01:20:11;10.80;99.90
6788;DHT22;3431;47.966;10.268;2023-05-28T01:20:34;10.70;99.90
6788;DHT22;3431;47.966;10.268;2023-05-28T01:20:56;10.70;99.90
6788;DHT22;3431;47.966;10.268;2023-05-28T01:21:17;10.80;99.90
6788;DHT22;3431;47.966;10.268;2023-05-28T01:21:44;10.70;99.90
6788;DHT22;3431;47.966;10.268;2023-05-28T01:22:07;10.70;99.90
6788;DHT22;3431;47.966;10.268;2023-05-28T01:22:36;10.70;99.90
6788;DHT22;3431;47.966;10.268;2023-05-28T01:23:00;10.70;99.90
6788;DHT22;3431;47.966;10.268;2023-05-28T01:23:26;10.70;99.90
6788;DHT22;3431;47.966;10.268;2023-05-28T01:23:51;10.70;99.90
6788;DHT22;3431;47.966;10.268;2023-05-28T01:24:14;10.70;99.90
6788;DHT22;3431;47.966;10.268;2023-05-28T01:24:37;10.70;99.90
6788;DHT22;3431;47.966;10.268;2023-05-28T01:25:01;10.60;99.90
6788;DHT22;3431;47.966;10.268;2023-05-28T01:25:23;10.70;99.90
6788;DHT22;3431;47.966;10.268;2023-05-28T01:25:49;10.70;99.90
6788;DHT22;3431;47.966;10.268;2023-05-28T01:26:14;10.70;99.90
6788;DHT22;3431;47.966;10.268;2023-05-28T01:26:37;10.60;99.90
6788;DHT22;3431;47.966;10.268;2023-05-28T01:26:59;10.70;99.90
6788;DHT22;3431;47.966;10.268;2023-05-28T01:27:21;10.60;99.90
6788;DHT22;3431;47.966;10.268;2023-05-28T01:27:43;10.70;99.90
6788;DHT22;3431;47.966;10.268;2023-05-28T01:28:11;10.60;99.90
6788;DHT22;3431;47.966;10.268;2023-05-28T01:28:34;10.60;99.90
6788;DHT22;3431;47.966;10.268;2023-05-28T01:28:56;10.60;99.90
6788;DHT22;3431;47.966;10.268;2023-05-28T01:29:19;10.60;99.90
6788;DHT22;3431;47.966;10.268;2023-05-28T01:29:41;10.60;99.90
6788;DHT22;3431;47.966;10.268;2023-05-28T01:30:03;10.60;99.90
6788;DHT22;3431;47.966;10.268;2023-05-28T01:30:26;10.60;99.90
6788;DHT22;3431;47.966;10.268;2023-05-28T01:30:48;10.60;99.90
6788;DHT22;3431;47.966;10.268;2023-05-28T01:31:10;10.60;99.90
6788;DHT22;3431;47.966;10.268;2023-05-28T01:31:31;10.60;99.90
6788;DHT22;3431;47.966;10.268;2023-05-28T01:31:56;10.60;99.90
6788;DHT22;3431;47.966;10.268;2023-05-28T01:32:18;10.60;99.90
6788;DHT22;3431;47.966;10.268;2023-05-28T01:32:40;10.60;99.90
6788;DHT22;3431;47.966;10.268;2023-05-28T01:33:01;10.60;99.90
6788;DHT22;3431;47.966;10.268;2023-05-28T01:33:23;10.60;99.90
6788;DHT22;3431;47.966;10.268;2023-05-28T01:33:46;10.60;99.90
6788;DHT22;3431;47.966;10.268;2023-05-28T01:34:12;10.60;99.90
6788;DHT22;3431;47.966;10.268;2023-05-28T01:34:34;10.60;99.90
6788;DHT22;3431;47.966;10.268;2023-05-28T01:34:56;10.60;99.90
6788;DHT22;3431;47.966;10.268;2023-05-28T01:35:18;10.60;99.90
6788;DHT22;3431;47.966;10.268;2023-05-28T01:35:40;10.60;99.90
6788;DHT22;3431;47.966;10.268;2023-05-28T01:36:06;10.60;99.90
6788;DHT22;3431;47.966;10.268;2023-05-28T01:36:30;10.60;99.90
6788;DHT22;3431;47.966;10.268;2023-05-28T01:36:57;10.60;99.90
6788;DHT22;3431;47.966;10.268;2023-05-28T01:37:19;10.50;99.90
6788;DHT22;3431;47.966;10.268;2023-05-28T01:37:46;10.50;99.90
6788;DHT22;3431;47.966;10.268;2023-05-28T01:38:09;10.60;99.90
6788;DHT22;3431;47.966;10.268;2023-05-28T01:38:32;10.50;99.90
6788;DHT22;3431;47.966;10.268;2023-05-28T01:38:57;10.50;99.90
6788;DHT22;3431;47.966;10.268;2023-05-28T01:39:24;10.50;99.90
6788;DHT22;3431;47.966;10.268;2023-05-28T01:39:49;10.50;99.90
6788;DHT22;3431;47.966;10.268;2023-05-28T01:40:12;10.50;99.90
6788;DHT22;3431;47.966;10.268;2023-05-28T01:40:36;10.50;99.90
6788;DHT22;3431;47.966;10.268;2023-05-28T01:41:00;10.40;99.90
6788;DHT22;3431;47.966;10.268;2023-05-28T01:41:23;10.50;99.90
6788;DHT22;3431;47.966;10.268;2023-05-28T01:41:47;10.50;99.90
6788;DHT22;3431;47.966;10.268;2023-05-28T01:42:09;10.50;99.90
6788;DHT22;3431;47.966;10.268;2023-05-28T01:42:34;10.50;99.90
6788;DHT22;3431;47.966;10.268;2023-05-28T01:42:56;10.50;99.90
6788;DHT22;3431;47.966;10.268;2023-05-28T01:43:18;10.40;99.90
6788;DHT22;3431;47.966;10.268;2023-05-28T01:43:42;10.40;99.90
6788;DHT22;3431;47.966;10.268;2023-05-28T01:44:05;10.40;99.90
6788;DHT22;3431;47.966;10.268;2023-05-28T01:44:29;10.40;99.90
6788;DHT22;3431;47.966;10.268;2023-05-28T01:44:51;10.40;99.90
6788;DHT22;3431;47.966;10.268;2023-05-28T01:45:13;10.40;99.90
6788;DHT22;3431;47.966;10.268;2023-05-28T01:45:37;10.40;99.90
6788;DHT22;3431;47.966;10.268;2023-05-28T01:45:59;10.40;99.90
6788;DHT22;3431;47.966;10.268;2023-05-28T01:46:22;10.30;99.90
6788;DHT22;3431;47.966;10.268;2023-05-28T01:46:45;10.40;99.90
6788;DHT22;3431;47.966;10.268;2023-05-28T01:47:10;10.40;99.90
6788;DHT22;3431;47.966;10.268;2023-05-28T01:47:32;10.40;99.90
6788;DHT22;3431;47.966;10.268;2023-05-28T01:47:54;10.30;99.90
6788;DHT22;3431;47.966;10.268;2023-05-28T01:48:17;10.30;99.90
6788;DHT22;3431;47.966;10.268;2023-05-28T01:48:39;10.30;99.90
6788;DHT22;3431;47.966;10.268;2023-05-28T01:49:02;10.30;99.90
6788;DHT22;3431;47.966;10.268;2023-05-28T01:49:23;10.30;99.90
6788;DHT22;3431;47.966;10.268;2023-05-28T01:49:45;10.30;99.90
6788;DHT22;3431;47.966;10.268;2023-05-28T01:50:08;10.30;99.90
6788;DHT22;3431;47.966;10.268;2023-05-28T01:50:30;10.30;99.90
6788;DHT22;3431;47.966;10.268;2023-05-28T01:50:54;10.30;99.90
6788;DHT22;3431;47.966;10.268;2023-05-28T01:51:16;10.30;99.90
6788;DHT22;3431;47.966;10.268;2023-05-28T01:51:37;10.30;99.90
6788;DHT22;3431;47.966;10.268;2023-05-28T01:52:02;10.30;99.90
6788;DHT22;3431;47.966;10.268;2023-05-28T01:52:24;10.30;99.90
6788;DHT22;3431;47.966;10.268;2023-05-28T01:53:08;10.30;99.90
6788;DHT22;3431;47.966;10.268;2023-05-28T01:53:30;10.20;99.90
6788;DHT22;3431;47.966;10.268;2023-05-28T01:53:52;10.20;99.90
6788;DHT22;3431;47.966;10.268;2023-05-28T01:54:16;10.20;99.90
6788;DHT22;3431;47.966;10.268;2023-05-28T01:54:37;10.20;99.90
6788;DHT22;3431;47.966;10.268;2023-05-28T01:55:22;10.20;99.90
6788;DHT22;3431;47.966;10.268;2023-05-28T01:55:45;10.20;99.90
6788;DHT22;3431;47.966;10.268;2023-05-28T01:56:07;10.20;99.90
6788;DHT22;3431;47.966;10.268;2023-05-28T01:56:29;10.20;99.90
6788;DHT22;3431;47.966;10.268;2023-05-28T01:56:52;10.30;99.90
6788;DHT22;3431;47.966;10.268;2023-05-28T01:57:13;10.30;99.90
6788;DHT22;3431;47.966;10.268;2023-05-28T01:57:36;10.20;99.90
6788;DHT22;3431;47.966;10.268;2023-05-28T01:57:58;10.20;99.90
6788;DHT22;3431;47.966;10.268;2023-05-28T01:58:21;10.20;99.90
6788;DHT22;3431;47.966;10.268;2023-05-28T01:58:44;10.20;99.90
6788;DHT22;3431;47.966;10.268;2023-05-28T01:59:06;10.20;99.90
6788;DHT22;3431;47.966;10.268;2023-05-28T01:59:28;10.20;99.90
6788;DHT22;3431;47.966;10.268;2023-05-28T02:00:13;10.30;99.90
6788;DHT22;3431;47.966;10.268;2023-05-28T02:00:42;10.30;99.90
6788;DHT22;3431;47.966;10.268;2023-05-28T02:01:11;10.20;99.90
6788;DHT22;3431;47.966;10.268;2023-05-28T02:01:33;10.20;99.90
6788;DHT22;3431;47.966;10.268;2023-05-28T02:01:59;10.20;99.90
6788;DHT22;3431;47.966;10.268;2023-05-28T02:02:21;10.20;99.90
6788;DHT22;3431;47.966;10.268;2023-05-28T02:02:47;10.20;99.90
6788;DHT22;3431;47.966;10.268;2023-05-28T02:03:11;10.30;99.90
6788;DHT22;3431;47.966;10.268;2023-05-28T02:03:33;10.20;99.90
6788;DHT22;3431;47.966;10.268;2023-05-28T02:03:56;10.20;99.90
6788;DHT22;3431;47.966;10.268;2023-05-28T02:04:18;10.30;99.90
6788;DHT22;3431;47.966;10.268;2023-05-28T02:04:39;10.20;99.90
6788;DHT22;3431;47.966;10.268;2023-05-28T02:05:01;10.20;99.90
6788;DHT22;3431;47.966;10.268;2023-05-28T02:05:23;10.20;99.90
6788;DHT22;3431;47.966;10.268;2023-05-28T02:05:45;10.20;99.90
6788;DHT22;3431;47.966;10.268;2023-05-28T02:06:06;10.30;99.90
6788;DHT22;3431;47.966;10.268;2023-05-28T02:06:34;10.20;99.90
6788;DHT22;3431;47.966;10.268;2023-05-28T02:06:56;10.20;99.90
6788;DHT22;3431;47.966;10.268;2023-05-28T02:07:20;10.30;99.90
6788;DHT22;3431;47.966;10.268;2023-05-28T02:07:41;10.20;99.90
6788;DHT22;3431;47.966;10.268;2023-05-28T02:08:03;10.20;99.90
6788;DHT22;3431;47.966;10.268;2023-05-28T02:08:25;10.20;99.90
6788;DHT22;3431;47.966;10.268;2023-05-28T02:08:47;10.20;99.90
6788;DHT22;3431;47.966;10.268;2023-05-28T02:09:09;10.20;99.90
6788;DHT22;3431;47.966;10.268;2023-05-28T02:09:32;10.20;99.90
6788;DHT22;3431;47.966;10.268;2023-05-28T02:09:53;10.20;99.90
6788;DHT22;3431;47.966;10.268;2023-05-28T02:10:15;10.20;99.90
6788;DHT22;3431;47.966;10.268;2023-05-28T02:10:38;10.20;99.90
6788;DHT22;3431;47.966;10.268;2023-05-28T02:10:59;10.20;99.90
6788;DHT22;3431;47.966;10.268;2023-05-28T02:11:21;10.20;99.90
6788;DHT22;3431;47.966;10.268;2023-05-28T02:11:43;10.20;99.90
6788;DHT22;3431;47.966;10.268;2023-05-28T02:12:05;10.20;99.90
6788;DHT22;3431;47.966;10.268;2023-05-28T02:12:27;10.20;99.90
6788;DHT22;3431;47.966;10.268;2023-05-28T02:12:49;10.10;99.90
6788;DHT22;3431;47.966;10.268;2023-05-28T02:13:11;10.10;99.90
6788;DHT22;3431;47.966;10.268;2023-05-28T02:13:33;10.10;99.90
6788;DHT22;3431;47.966;10.268;2023-05-28T02:13:54;10.10;99.90
6788;DHT22;3431;47.966;10.268;2023-05-28T02:14:17;10.10;99.90
6788;DHT22;3431;47.966;10.268;2023-05-28T02:14:39;10.10;99.90
6788;DHT22;3431;47.966;10.268;2023-05-28T02:15:02;10.10;99.90
6788;DHT22;3431;47.966;10.268;2023-05-28T02:15:24;10.10;99.90
6788;DHT22;3431;47.966;10.268;2023-05-28T02:15:46;10.10;99.90
6788;DHT22;3431;47.966;10.268;2023-05-28T02:16:08;10.10;99.90
6788;DHT22;3431;47.966;10.268;2023-05-28T02:16:32;10.10;99.90
6788;DHT22;3431;47.966;10.268;2023-05-28T02:16:53;10.10;99.90
6788;DHT22;3431;47.966;10.268;2023-05-28T02:17:15;10.10;99.90
6788;DHT22;3431;47.966;10.268;2023-05-28T02:17:38;10.00;99.90
6788;DHT22;3431;47.966;10.268;2023-05-28T02:18:01;10.10;99.90
6788;DHT22;3431;47.966;10.268;2023-05-28T02:18:22;10.10;99.90
6788;DHT22;3431;47.966;10.268;2023-05-28T02:18:46;10.00;99.90
6788;DHT22;3431;47.966;10.268;2023-05-28T02:19:10;10.00;99.90
6788;DHT22;3431;47.966;10.268;2023-05-28T02:19:33;10.00;99.90
6788;DHT22;3431;47.966;10.268;2023-05-28T02:19:55;10.00;99.90
6788;DHT22;3431;47.966;10.268;2023-05-28T02:20:21;10.00;99.90
6788;DHT22;3431;47.966;10.268;2023-05-28T02:20:43;10.00;99.90
6788;DHT22;3431;47.966;10.268;2023-05-28T02:21:06;10.00;99.90
6788;DHT22;3431;47.966;10.268;2023-05-28T02:21:27;10.00;99.90
6788;DHT22;3431;47.966;10.268;2023-05-28T02:21:49;10.00;99.90
6788;DHT22;3431;47.966;10.268;2023-05-28T02:22:13;10.00;99.90
6788;DHT22;3431;47.966;10.268;2023-05-28T02:22:35;10.00;99.90
6788;DHT22;3431;47.966;10.268;2023-05-28T02:22:56;10.00;99.90
6788;DHT22;3431;47.966;10.268;2023-05-28T02:23:19;10.00;99.90
6788;DHT22;3431;47.966;10.268;2023-05-28T02:23:43;9.90;99.90
6788;DHT22;3431;47.966;10.268;2023-05-28T02:24:05;10.00;99.90
6788;DHT22;3431;47.966;10.268;2023-05-28T02:24:27;9.90;99.90
6788;DHT22;3431;47.966;10.268;2023-05-28T02:24:50;9.90;99.90
6788;DHT22;3431;47.966;10.268;2023-05-28T02:25:13;9.90;99.90
6788;DHT22;3431;47.966;10.268;2023-05-28T02:25:34;9.90;99.90
6788;DHT22;3431;47.966;10.268;2023-05-28T02:25:56;9.90;99.90
6788;DHT22;3431;47.966;10.268;2023-05-28T02:26:18;9.90;99.90
6788;DHT22;3431;47.966;10.268;2023-05-28T02:26:41;9.90;99.90
6788;DHT22;3431;47.966;10.268;2023-05-28T02:27:03;9.90;99.90
6788;DHT22;3431;47.966;10.268;2023-05-28T02:27:26;9.90;99.90
6788;DHT22;3431;47.966;10.268;2023-05-28T02:27:48;9.90;99.90
6788;DHT22;3431;47.966;10.268;2023-05-28T02:28:11;9.90;99.90
6788;DHT22;3431;47.966;10.268;2023-05-28T02:28:54;9.90;99.90
6788;DHT22;3431;47.966;10.268;2023-05-28T02:29:15;9.90;99.90
6788;DHT22;3431;47.966;10.268;2023-05-28T02:29:38;9.90;99.90
6788;DHT22;3431;47.966;10.268;2023-05-28T02:30:00;9.90;99.90
6788;DHT22;3431;47.966;10.268;2023-05-28T02:30:22;9.90;99.90
6788;DHT22;3431;47.966;10.268;2023-05-28T02:30:43;9.80;99.90
6788;DHT22;3431;47.966;10.268;2023-05-28T02:31:05;9.80;99.90